Time;durP1;ratioP1;P1;durP2;ratioP2;P2;SDS_P1;SDS_P2;PMS_P1;PMS_P2;Temp;Humidity;BMP_temperature;BMP_pressure;BME280_temperature;BME280_humidity;BME280_pressure;Samples;Min_cycle;Max_cycle;Signal;HPM_P1;HPM_P2
2021/01/11 00:00:28;;;;;;;21.52;11.10;;;-3.70;99.90;;;;;;5095321;28;20204;-80
2021/01/11 00:02:55;;;;;;;22.23;13.63;;;-3.60;99.90;;;;;;5096496;28;20295;-83
2021/01/11 00:05:22;;;;;;;19.92;13.50;;;-3.70;99.90;;;;;;5096597;28;20209;-81
2021/01/11 00:07:49;;;;;;;18.17;11.68;;;-3.70;99.90;;;;;;5096301;28;20303;-82
2021/01/11 00:10:16;;;;;;;14.75;10.60;;;-3.70;99.90;;;;;;5096467;28;20638;-81
2021/01/11 00:12:46;;;;;;;27.95;14.98;;;-3.80;99.90;;;;;;5096109;28;20299;-81
2021/01/11 00:15:15;;;;;;;25.95;14.10;;;-3.70;99.90;;;;;;5095102;28;20213;-82
2021/01/11 00:17:42;;;;;;;30.77;15.85;;;-3.60;99.90;;;;;;5096036;28;20225;-81
2021/01/11 00:20:09;;;;;;;27.83;14.95;;;-3.50;99.90;;;;;;5096374;28;20236;-82
2021/01/11 00:22:36;;;;;;;25.85;13.25;;;-3.40;99.90;;;;;;5095931;28;20288;-82
2021/01/11 00:25:06;;;;;;;25.70;13.50;;;-3.40;99.90;;;;;;5096074;28;20240;-81
2021/01/11 00:27:33;;;;;;;24.85;13.65;;;-3.40;99.90;;;;;;5095673;28;20228;-81
2021/01/11 00:29:59;;;;;;;24.10;12.77;;;-3.40;99.90;;;;;;5094897;28;20300;-80
2021/01/11 00:32:26;;;;;;;20.60;11.75;;;-3.40;99.90;;;;;;5095764;28;20748;-79
2021/01/11 00:34:53;;;;;;;26.80;13.48;;;-3.30;99.90;;;;;;5095778;28;20232;-80
2021/01/11 00:37:19;;;;;;;22.63;13.07;;;-3.30;99.90;;;;;;5095816;28;20327;-81
2021/01/11 00:39:45;;;;;;;19.80;12.77;;;-3.40;99.90;;;;;;5095884;28;20209;-80
2021/01/11 00:42:12;;;;;;;22.30;11.60;;;-3.30;99.90;;;;;;5095585;28;20292;-81
2021/01/11 00:44:39;;;;;;;20.92;10.52;;;-3.30;99.90;;;;;;5094589;28;20288;-81
2021/01/11 00:47:05;;;;;;;20.75;12.57;;;-3.30;99.90;;;;;;5095649;28;20200;-81
2021/01/11 00:49:33;;;;;;;25.92;14.60;;;-3.40;99.90;;;;;;5095626;28;20546;-79
2021/01/11 00:52:00;;;;;;;23.58;12.50;;;-3.40;99.90;;;;;;5095866;28;20205;-80
2021/01/11 00:54:26;;;;;;;17.95;11.27;;;-3.50;99.90;;;;;;5095555;28;20211;-82
2021/01/11 00:56:52;;;;;;;24.13;11.77;;;-3.60;99.90;;;;;;5095219;28;20259;-82
2021/01/11 00:59:19;;;;;;;18.35;11.32;;;-3.60;99.90;;;;;;5094483;28;20621;-82
2021/01/11 01:01:50;;;;;;;23.60;10.70;;;-3.70;99.90;;;;;;5095633;28;20288;-82
2021/01/11 01:04:16;;;;;;;24.80;11.13;;;-3.60;99.90;;;;;;5094234;28;20237;-83
2021/01/11 01:06:46;;;;;;;20.20;11.65;;;-3.60;99.90;;;;;;5095471;28;20869;-83
2021/01/11 01:09:13;;;;;;;24.83;13.15;;;-3.60;99.90;;;;;;5095215;28;20224;-83
2021/01/11 01:11:40;;;;;;;19.00;9.98;;;-3.60;99.90;;;;;;5095047;28;20292;-83
2021/01/11 01:14:07;;;;;;;22.48;11.48;;;-3.60;99.90;;;;;;5094311;28;20204;-83
2021/01/11 01:16:34;;;;;;;21.38;11.98;;;-3.60;99.90;;;;;;5092358;28;20788;-83
2021/01/11 01:19:00;;;;;;;20.88;11.27;;;-3.60;99.90;;;;;;5094924;28;20705;-83
2021/01/11 01:21:27;;;;;;;16.60;9.98;;;-3.70;99.90;;;;;;5094896;28;20738;-83
2021/01/11 01:23:54;;;;;;;20.60;10.93;;;-3.80;99.90;;;;;;5094943;28;20551;-82
2021/01/11 01:26:21;;;;;;;27.40;11.70;;;-4.00;99.90;;;;;;5094748;28;20307;-83
2021/01/11 01:28:47;;;;;;;24.77;13.00;;;-4.10;99.90;;;;;;5095102;28;20204;-82
2021/01/11 01:31:14;;;;;;;24.13;12.35;;;-4.10;99.90;;;;;;5093476;28;20342;-83
2021/01/11 01:33:42;;;;;;;22.92;12.27;;;-4.10;99.90;;;;;;5094727;28;20211;-82
2021/01/11 01:36:10;;;;;;;23.10;12.95;;;-4.00;99.90;;;;;;5094705;28;20197;-83
2021/01/11 01:38:36;;;;;;;14.88;9.13;;;-4.00;99.90;;;;;;5094725;28;20289;-82
2021/01/11 01:41:04;;;;;;;16.63;10.00;;;-4.00;99.90;;;;;;5094320;28;20564;-84
2021/01/11 01:43:31;;;;;;;17.20;10.90;;;-4.00;99.90;;;;;;5094564;28;20292;-83
2021/01/11 01:45:57;;;;;;;19.55;11.05;;;-4.00;99.90;;;;;;5093095;28;20201;-83
2021/01/11 01:48:24;;;;;;;18.35;10.40;;;-4.00;99.90;;;;;;5094596;28;20295;-83
2021/01/11 01:50:50;;;;;;;18.40;10.50;;;-4.10;99.90;;;;;;5094528;28;20284;-83
2021/01/11 01:53:16;;;;;;;22.95;10.13;;;-4.10;99.90;;;;;;5094547;28;20680;-83
2021/01/11 01:55:43;;;;;;;21.80;15.30;;;-4.10;99.90;;;;;;5094404;28;20628;-83
2021/01/11 01:58:11;;;;;;;14.68;9.10;;;-4.10;99.90;;;;;;5094012;28;20238;-83
2021/01/11 02:00:38;;;;;;;28.92;13.65;;;-4.10;99.90;;;;;;5092816;28;20212;-83
2021/01/11 02:03:05;;;;;;;22.40;11.35;;;-4.10;99.90;;;;;;5093738;28;20291;-83
2021/01/11 02:05:31;;;;;;;22.83;14.57;;;-4.20;99.90;;;;;;5093991;28;20220;-85
2021/01/11 02:08:07;;;;;;;27.35;10.45;;;-4.10;99.90;;;;;;5093891;28;20241;-83
2021/01/11 02:10:50;;;;;;;20.27;11.95;;;-4.10;99.90;;;;;;5093737;28;20297;-83
2021/01/11 02:13:39;;;;;;;17.77;11.90;;;-4.10;99.90;;;;;;5093543;28;20801;-84
2021/01/11 02:16:09;;;;;;;17.20;8.75;;;-4.20;99.90;;;;;;5092199;28;20668;-83
2021/01/11 02:18:46;;;;;;;15.10;10.75;;;-4.40;99.90;;;;;;5093673;28;20262;-84
2021/01/11 02:21:59;;;;;;;23.23;11.35;;;-4.50;99.90;;;;;;5093588;28;20291;-84
2021/01/11 02:25:00;;;;;;;19.98;10.35;;;-4.40;99.90;;;;;;5057121;28;20284;-83
2021/01/11 02:27:45;;;;;;;16.00;10.43;;;-4.30;99.90;;;;;;5092956;28;20267;-83
2021/01/11 02:30:29;;;;;;;22.10;10.98;;;-4.30;99.90;;;;;;5092327;28;20572;-84
2021/01/11 02:33:04;;;;;;;16.33;8.73;;;-4.40;99.90;;;;;;5090977;28;20235;-83
2021/01/11 02:35:31;;;;;;;16.83;9.98;;;-4.50;99.90;;;;;;5093390;28;20232;-84
2021/01/11 02:37:59;;;;;;;16.60;10.50;;;-4.60;99.90;;;;;;5093159;28;20232;-82
2021/01/11 02:40:25;;;;;;;23.50;11.48;;;-4.70;99.90;;;;;;5093426;28;20291;-84
2021/01/11 02:42:52;;;;;;;25.45;14.32;;;-4.70;99.90;;;;;;5093028;28;20656;-85
2021/01/11 02:45:19;;;;;;;22.33;11.00;;;-4.80;99.90;;;;;;5092247;28;20280;-85
2021/01/11 02:47:59;;;;;;;22.20;11.18;;;-4.70;99.90;;;;;;5093427;28;20291;-86
2021/01/11 02:50:26;;;;;;;21.08;11.02;;;-4.80;99.90;;;;;;5093437;28;20200;-85
2021/01/11 02:53:07;;;;;;;18.65;9.27;;;-4.80;99.90;;;;;;5093293;28;20212;-84
2021/01/11 02:55:43;;;;;;;15.90;9.18;;;-4.80;99.90;;;;;;5092879;28;20201;-83
2021/01/11 02:58:14;;;;;;;16.30;10.25;;;-4.90;99.90;;;;;;5092837;28;20310;-85
2021/01/11 03:00:45;;;;;;;16.90;10.80;;;-4.80;99.90;;;;;;5091855;28;20208;-85
2021/01/11 03:03:13;;;;;;;11.98;8.95;;;-4.80;99.90;;;;;;5093057;28;20631;-85
2021/01/11 03:05:40;;;;;;;24.23;10.60;;;-4.80;99.90;;;;;;5092970;28;20257;-84
2021/01/11 03:08:06;;;;;;;14.90;10.82;;;-4.80;99.90;;;;;;5093202;28;20284;-85
2021/01/11 03:10:33;;;;;;;23.20;10.15;;;-4.80;99.90;;;;;;5093046;28;20200;-85
2021/01/11 03:12:59;;;;;;;20.48;10.18;;;-4.80;99.90;;;;;;5092710;28;20250;-86
2021/01/11 03:15:26;;;;;;;28.13;11.57;;;-4.70;99.90;;;;;;5091615;28;20204;-84
2021/01/11 03:17:53;;;;;;;21.67;10.80;;;-4.70;99.90;;;;;;5092930;28;20234;-85
2021/01/11 03:20:19;;;;;;;14.88;9.10;;;-4.70;99.90;;;;;;5093010;28;20200;-85
2021/01/11 03:22:46;;;;;;;22.65;12.40;;;-4.60;99.90;;;;;;5092928;28;20205;-84
2021/01/11 03:25:12;;;;;;;21.52;9.95;;;-4.60;99.90;;;;;;5092880;28;20660;-85
2021/01/11 03:27:39;;;;;;;21.08;11.02;;;-4.60;99.90;;;;;;5096220;28;20311;-85
2021/01/11 03:30:06;;;;;;;15.75;10.82;;;-4.70;99.90;;;;;;5102183;28;20250;-86
2021/01/11 03:32:33;;;;;;;13.07;8.85;;;-4.70;99.90;;;;;;5097510;28;20200;-84
2021/01/11 03:35:00;;;;;;;17.10;8.40;;;-4.80;99.90;;;;;;5097027;28;20291;-84
2021/01/11 03:37:27;;;;;;;18.80;9.27;;;-4.80;99.90;;;;;;5096605;28;20228;-84
2021/01/11 03:39:53;;;;;;;24.75;10.85;;;-4.80;99.90;;;;;;5096921;28;20215;-84
2021/01/11 03:42:20;;;;;;;22.45;11.02;;;-4.80;99.90;;;;;;5096891;28;20287;-85
2021/01/11 03:44:46;;;;;;;16.17;9.52;;;-4.80;99.90;;;;;;5095605;28;20207;-84
2021/01/11 03:47:12;;;;;;;16.55;10.82;;;-4.70;99.90;;;;;;5094088;28;20291;-85
2021/01/11 03:49:39;;;;;;;20.27;12.05;;;-4.70;99.90;;;;;;5096581;28;20287;-87
2021/01/11 03:52:06;;;;;;;14.88;10.27;;;-4.70;99.90;;;;;;5096710;28;20292;-86
2021/01/11 03:54:32;;;;;;;17.27;9.35;;;-4.70;99.90;;;;;;5096635;28;20251;-86
2021/01/11 03:56:59;;;;;;;11.52;9.75;;;-4.70;99.90;;;;;;5096137;28;20316;-85
2021/01/11 03:59:25;;;;;;;19.48;10.30;;;-4.70;99.90;;;;;;5095216;28;20237;-86
2021/01/11 04:01:53;;;;;;;19.98;8.82;;;-4.70;99.90;;;;;;5096670;28;20197;-84
2021/01/11 04:04:20;;;;;;;20.08;13.70;;;-4.80;99.90;;;;;;5096285;28;20258;-85
2021/01/11 04:06:46;;;;;;;17.67;10.73;;;-4.90;99.90;;;;;;5096263;28;20204;-83
2021/01/11 04:09:14;;;;;;;27.95;11.18;;;-4.90;99.90;;;;;;5096388;28;20235;-84
2021/01/11 04:11:40;;;;;;;20.77;11.88;;;-4.90;99.90;;;;;;5095984;28;20296;-85
2021/01/11 04:14:07;;;;;;;15.65;9.00;;;-5.00;99.90;;;;;;5095036;28;20292;-83
2021/01/11 04:16:34;;;;;;;15.38;9.80;;;-4.90;99.90;;;;;;5095902;28;20288;-84
2021/01/11 04:19:00;;;;;;;22.80;10.80;;;-4.90;99.90;;;;;;5096107;28;20292;-84
2021/01/11 04:21:27;;;;;;;20.40;11.25;;;-5.00;99.90;;;;;;5096111;28;20678;-84
2021/01/11 04:23:53;;;;;;;19.80;9.80;;;-5.10;99.90;;;;;;5095982;28;20792;-85
2021/01/11 04:26:20;;;;;;;15.52;8.32;;;-5.10;99.90;;;;;;5095809;28;20287;-85
2021/01/11 04:28:47;;;;;;;18.63;9.93;;;-5.10;99.90;;;;;;5095403;28;20257;-85
2021/01/11 04:31:13;;;;;;;20.30;10.80;;;-5.10;99.90;;;;;;5094736;28;20288;-84
2021/01/11 04:33:39;;;;;;;19.27;10.95;;;-5.10;99.90;;;;;;5096617;28;20540;-84
2021/01/11 04:36:07;;;;;;;18.95;10.60;;;-5.00;99.90;;;;;;5095832;28;20215;-85
2021/01/11 04:38:33;;;;;;;21.27;11.45;;;-5.10;99.90;;;;;;5095748;28;20969;-86
2021/01/11 04:41:01;;;;;;;15.45;9.93;;;-5.20;99.90;;;;;;5096140;28;20624;-85
2021/01/11 04:43:31;;;;;;;18.27;9.07;;;-5.20;99.90;;;;;;5095417;28;20236;-84
2021/01/11 04:45:59;;;;;;;14.07;9.50;;;-5.20;99.90;;;;;;5094759;28;20211;-86
2021/01/11 04:48:25;;;;;;;17.83;10.15;;;-5.20;99.90;;;;;;5096201;28;20212;-85
2021/01/11 04:50:52;;;;;;;15.23;8.80;;;-5.20;99.90;;;;;;5095832;28;20311;-85
2021/01/11 04:53:20;;;;;;;20.13;10.70;;;-5.20;99.90;;;;;;5095825;28;20341;-85
2021/01/11 04:55:47;;;;;;;27.13;9.80;;;-5.20;99.90;;;;;;5095865;28;20212;-85
2021/01/11 04:58:14;;;;;;;18.02;10.52;;;-5.20;99.90;;;;;;5095884;28;20228;-85
2021/01/11 05:00:43;;;;;;;21.63;9.32;;;-5.30;99.90;;;;;;5096335;28;20208;-85
2021/01/11 05:03:11;;;;;;;21.17;10.70;;;-5.30;99.90;;;;;;5092947;28;20200;-85
2021/01/11 05:05:39;;;;;;;22.40;9.27;;;-5.40;99.90;;;;;;5097116;28;20291;-84
2021/01/11 05:08:07;;;;;;;19.17;10.35;;;-5.50;99.90;;;;;;5097940;28;20391;-85
2021/01/11 05:10:35;;;;;;;9.52;8.55;;;-5.50;99.90;;;;;;5096775;28;20269;-85
2021/01/11 05:13:04;;;;;;;16.95;10.48;;;-5.40;99.90;;;;;;5097162;28;20300;-85
2021/01/11 05:15:31;;;;;;;16.58;9.48;;;-5.50;99.90;;;;;;5095790;28;20292;-86
2021/01/11 05:18:00;;;;;;;16.70;9.13;;;-5.50;99.90;;;;;;5099357;27;20654;-85
2021/01/11 05:20:28;;;;;;;18.45;9.60;;;-5.40;99.90;;;;;;5104335;28;20236;-86
2021/01/11 05:22:56;;;;;;;20.58;10.50;;;-5.50;99.90;;;;;;5105224;28;20197;-86
2021/01/11 05:25:24;;;;;;;20.27;9.98;;;-5.50;99.90;;;;;;5105777;28;20239;-84
2021/01/11 05:28:05;;;;;;;21.25;10.60;;;-5.40;99.90;;;;;;5105796;28;20267;-86
2021/01/11 05:30:34;;;;;;;20.83;12.73;;;-5.40;99.90;;;;;;5098310;28;20264;-83
2021/01/11 05:33:01;;;;;;;18.98;10.02;;;-5.40;99.90;;;;;;5099111;28;20292;-81
2021/01/11 05:35:28;;;;;;;16.45;8.75;;;-5.40;99.90;;;;;;5096990;28;20204;-81
2021/01/11 05:37:55;;;;;;;18.88;9.75;;;-5.40;99.90;;;;;;5096921;28;20274;-80
2021/01/11 05:40:23;;;;;;;19.00;10.00;;;-5.40;99.90;;;;;;5095690;28;20664;-82
2021/01/11 05:42:51;;;;;;;20.77;9.60;;;-5.40;99.90;;;;;;5095083;28;20295;-82
2021/01/11 05:45:20;;;;;;;21.92;9.68;;;-5.40;99.90;;;;;;5093790;28;20208;-82
2021/01/11 05:47:58;;;;;;;12.45;8.13;;;-5.50;99.90;;;;;;5094971;28;20208;-81
2021/01/11 05:50:29;;;;;;;19.13;9.63;;;-5.50;99.90;;;;;;5094840;28;20346;-85
2021/01/11 05:52:56;;;;;;;16.23;11.23;;;-5.40;99.90;;;;;;5095552;28;20292;-83
2021/01/11 05:55:24;;;;;;;20.40;10.18;;;-5.50;99.90;;;;;;5096624;28;20297;-84
2021/01/11 05:57:56;;;;;;;23.45;10.43;;;-5.50;99.90;;;;;;5095479;28;20319;-86
2021/01/11 06:00:24;;;;;;;17.60;10.20;;;-5.50;99.90;;;;;;5076927;28;20640;-86
2021/01/11 06:02:54;;;;;;;20.20;11.43;;;-5.50;99.90;;;;;;5116407;28;20607;-85
2021/01/11 06:05:21;;;;;;;10.32;8.07;;;-5.50;99.90;;;;;;5116434;28;20213;-85
2021/01/11 06:07:49;;;;;;;17.73;9.48;;;-5.60;99.90;;;;;;5117175;28;20220;-85
2021/01/11 06:10:17;;;;;;;14.52;9.15;;;-5.60;99.90;;;;;;5097964;28;20686;-85
2021/01/11 06:12:46;;;;;;;18.92;11.52;;;-5.50;99.90;;;;;;5094050;28;20262;-85
2021/01/11 06:15:14;;;;;;;12.35;7.63;;;-5.60;99.90;;;;;;5094078;28;20201;-86
2021/01/11 06:17:42;;;;;;;17.48;10.48;;;-5.60;99.90;;;;;;5094481;28;20320;-83
2021/01/11 06:20:13;;;;;;;15.55;9.00;;;-5.50;99.90;;;;;;5094664;28;20205;-84
2021/01/11 06:23:02;;;;;;;18.90;9.00;;;-5.50;99.90;;;;;;5094235;28;20201;-82
2021/01/11 06:25:44;;;;;;;18.80;8.43;;;-5.40;99.90;;;;;;5094557;28;20288;-85
2021/01/11 06:28:12;;;;;;;19.95;10.43;;;-5.40;99.90;;;;;;5093867;28;20312;-82
2021/01/11 06:30:46;;;;;;;21.02;8.80;;;-5.40;99.90;;;;;;5093224;28;20228;-82
2021/01/11 06:33:15;;;;;;;22.15;10.88;;;-5.40;99.90;;;;;;5094547;28;20197;-81
2021/01/11 06:35:43;;;;;;;19.83;10.02;;;-5.40;99.90;;;;;;5094443;28;20567;-82
2021/01/11 06:38:22;;;;;;;15.35;7.07;;;-5.40;99.90;;;;;;5094198;28;20233;-85
2021/01/11 06:40:50;;;;;;;17.48;9.32;;;-5.40;99.90;;;;;;5094310;28;20243;-86
2021/01/11 06:43:17;;;;;;;16.85;9.73;;;-5.40;99.90;;;;;;5093933;28;20303;-85
2021/01/11 06:45:47;;;;;;;22.52;11.73;;;-5.30;99.90;;;;;;5092970;28;20287;-83
2021/01/11 06:48:15;;;;;;;22.35;9.45;;;-5.30;99.90;;;;;;5094180;28;20284;-84
2021/01/11 06:50:44;;;;;;;10.00;6.88;;;-5.30;99.90;;;;;;5093789;28;20235;-84
2021/01/11 06:53:11;;;;;;;18.30;9.18;;;-5.30;99.90;;;;;;5094018;28;20230;-86
2021/01/11 06:55:39;;;;;;;13.30;9.38;;;-5.40;99.90;;;;;;5093771;28;20296;-84
2021/01/11 06:58:05;;;;;;;12.90;9.50;;;-5.40;99.90;;;;;;5093925;28;20763;-84
2021/01/11 07:00:36;;;;;;;14.20;8.48;;;-5.40;99.90;;;;;;5092351;28;20288;-84
2021/01/11 07:03:06;;;;;;;15.13;9.02;;;-5.30;99.90;;;;;;5094656;28;20214;-84
2021/01/11 07:05:47;;;;;;;19.73;10.23;;;-5.50;99.90;;;;;;5095057;28;20393;-83
2021/01/11 07:08:16;;;;;;;19.83;11.30;;;-5.50;99.90;;;;;;5094874;28;20208;-85
2021/01/11 07:10:48;;;;;;;21.25;11.30;;;-5.50;99.90;;;;;;5094437;28;20292;-84
2021/01/11 07:13:31;;;;;;;24.90;9.88;;;-5.40;99.90;;;;;;5093851;28;20549;-85
2021/01/11 07:16:16;;;;;;;19.45;10.90;;;-5.40;99.90;;;;;;5092514;28;20226;-83
2021/01/11 07:18:50;;;;;;;17.42;9.10;;;-5.30;99.90;;;;;;5096061;28;20232;-84
2021/01/11 07:21:18;;;;;;;14.93;9.30;;;-5.40;99.90;;;;;;5094462;28;20228;-82
2021/01/11 07:23:45;;;;;;;22.17;9.38;;;-5.40;99.90;;;;;;5093972;28;20292;-85
2021/01/11 07:26:15;;;;;;;23.38;9.57;;;-5.30;99.90;;;;;;5094215;28;20200;-85
2021/01/11 07:28:54;;;;;;;18.35;10.60;;;-5.40;99.90;;;;;;5095356;28;20299;-85
2021/01/11 07:31:22;;;;;;;20.25;10.77;;;-5.30;99.90;;;;;;5092473;28;20244;-85
2021/01/11 07:34:07;;;;;;;18.27;11.43;;;-5.30;99.90;;;;;;5093876;28;20204;-85
2021/01/11 07:36:35;;;;;;;21.38;10.38;;;-5.30;99.90;;;;;;5093345;28;20205;-84
2021/01/11 07:39:19;;;;;;;23.25;10.52;;;-5.20;99.90;;;;;;5093815;28;20292;-84
2021/01/11 07:41:48;;;;;;;21.88;10.25;;;-5.20;99.90;;;;;;5093403;28;20265;-84
2021/01/11 07:44:19;;;;;;;23.20;11.40;;;-5.20;99.90;;;;;;5092176;28;20205;-86
2021/01/11 07:46:52;;;;;;;23.10;10.18;;;-5.10;99.90;;;;;;5093224;28;20671;-85
2021/01/11 07:49:19;;;;;;;23.73;12.63;;;-5.10;99.90;;;;;;5093295;28;20211;-82
2021/01/11 07:51:48;;;;;;;26.55;11.00;;;-5.10;99.90;;;;;;5093076;28;20211;-82
2021/01/11 07:54:16;;;;;;;16.65;9.20;;;-5.00;99.90;;;;;;5093217;28;20343;-81
2021/01/11 07:56:44;;;;;;;18.58;10.10;;;-5.00;99.90;;;;;;5094302;28;20328;-82
2021/01/11 07:59:11;;;;;;;20.73;10.35;;;-5.00;99.90;;;;;;5095959;28;20207;-83
2021/01/11 08:01:39;;;;;;;23.92;14.02;;;-4.90;99.90;;;;;;5098025;28;20292;-82
2021/01/11 08:04:06;;;;;;;23.10;12.07;;;-4.90;99.90;;;;;;5093108;28;20201;-83
2021/01/11 08:06:51;;;;;;;22.55;11.07;;;-4.80;99.90;;;;;;5092726;28;20211;-81
2021/01/11 08:09:19;;;;;;;17.77;12.90;;;-4.80;99.90;;;;;;5092941;28;20739;-83
2021/01/11 08:11:46;;;;;;;23.88;12.15;;;-4.70;99.90;;;;;;5093217;28;20344;-84
2021/01/11 08:14:15;;;;;;;18.75;10.90;;;-4.60;99.90;;;;;;5097389;28;20682;-80
2021/01/11 08:16:49;;;;;;;21.25;10.85;;;-4.50;99.90;;;;;;5097410;28;20208;-84
2021/01/11 08:19:15;;;;;;;23.50;12.52;;;-4.50;99.90;;;;;;5095986;28;20212;-86
2021/01/11 08:21:41;;;;;;;23.15;12.82;;;-4.40;99.90;;;;;;5097285;28;20240;-87
2021/01/11 08:24:10;;;;;;;28.30;17.38;;;-4.30;99.90;;;;;;5097085;28;20212;-84
2021/01/11 08:26:50;;;;;;;23.83;11.77;;;-4.20;99.90;;;;;;5097152;28;20292;-84
2021/01/11 08:29:18;;;;;;;27.52;12.75;;;-4.10;99.90;;;;;;5095793;28;20262;-87
2021/01/11 08:31:45;;;;;;;20.90;11.18;;;-4.00;99.90;;;;;;5096663;28;20247;-86
2021/01/11 08:34:12;;;;;;;24.70;12.27;;;-3.90;99.90;;;;;;5096312;28;20209;-85
2021/01/11 08:36:39;;;;;;;27.13;13.75;;;-3.70;99.90;;;;;;5095603;28;20236;-84
2021/01/11 08:39:13;;;;;;;17.75;11.25;;;-3.70;99.90;;;;;;5095868;28;20315;-84
2021/01/11 08:41:42;;;;;;;23.88;12.18;;;-3.50;99.90;;;;;;5095788;28;20204;-84
2021/01/11 08:44:27;;;;;;;21.55;12.45;;;-3.50;99.90;;;;;;5095142;28;20204;-83
2021/01/11 08:47:01;;;;;;;19.90;12.15;;;-3.40;99.90;;;;;;5095713;28;20307;-84
2021/01/11 08:49:28;;;;;;;18.55;10.65;;;-3.40;99.90;;;;;;5095766;28;20284;-86
2021/01/11 08:52:19;;;;;;;27.13;16.00;;;-3.30;99.90;;;;;;5097461;28;20236;-84
2021/01/11 08:54:45;;;;;;;21.05;12.35;;;-3.20;99.90;;;;;;5097693;28;20236;-83
2021/01/11 08:57:13;;;;;;;16.48;9.77;;;-3.20;99.90;;;;;;5095887;28;20228;-83
2021/01/11 08:59:54;;;;;;;22.45;12.13;;;-3.20;99.90;;;;;;5094432;28;20201;-84
2021/01/11 09:02:27;;;;;;;25.05;10.80;;;-3.10;99.90;;;;;;5096394;28;20208;-85
2021/01/11 09:04:54;;;;;;;24.23;11.75;;;-3.00;99.90;;;;;;5098300;28;20236;-86
2021/01/11 09:07:28;;;;;;;27.05;13.10;;;-3.00;99.90;;;;;;5102547;28;20239;-82
2021/01/11 09:09:57;;;;;;;23.08;12.27;;;-3.00;99.90;;;;;;5102745;28;20192;-80
2021/01/11 09:12:31;;;;;;;27.40;12.25;;;-2.90;99.90;;;;;;5078591;28;20204;-83
2021/01/11 09:14:59;;;;;;;16.70;9.20;;;-2.90;99.90;;;;;;5073529;28;20253;-80
2021/01/11 09:17:27;;;;;;;25.05;12.80;;;-2.90;99.90;;;;;;5074222;28;20233;-81
2021/01/11 09:19:54;;;;;;;24.70;11.90;;;-2.80;99.90;;;;;;5075500;28;20201;-82
2021/01/11 09:22:33;;;;;;;24.55;11.90;;;-2.80;99.90;;;;;;5076152;28;20292;-82
2021/01/11 09:25:04;;;;;;;26.08;11.75;;;-2.80;99.90;;;;;;5074574;28;20660;-81
2021/01/11 09:27:30;;;;;;;19.60;11.52;;;-2.80;99.90;;;;;;5075300;28;20755;-82
2021/01/11 09:29:58;;;;;;;19.20;10.85;;;-2.80;99.90;;;;;;5080654;28;20284;-85
2021/01/11 09:32:26;;;;;;;20.88;11.68;;;-2.70;99.90;;;;;;5097388;28;20232;-84
2021/01/11 09:34:52;;;;;;;20.25;11.65;;;-2.60;99.90;;;;;;5097414;28;20232;-84
2021/01/11 09:37:20;;;;;;;19.40;11.05;;;-2.60;99.90;;;;;;5096636;28;20228;-82
2021/01/11 09:39:47;;;;;;;20.20;9.57;;;-2.60;99.90;;;;;;5097168;28;20257;-84
2021/01/11 09:42:14;;;;;;;20.73;10.50;;;-2.50;99.90;;;;;;5096674;28;20248;-83
2021/01/11 09:44:43;;;;;;;17.08;9.95;;;-2.50;99.90;;;;;;5095486;28;20201;-85
2021/01/11 09:47:12;;;;;;;19.77;10.13;;;-2.40;99.90;;;;;;5096887;28;20205;-83
2021/01/11 09:49:38;;;;;;;24.73;11.77;;;-2.40;99.90;;;;;;5096857;28;20288;-83
2021/01/11 09:52:05;;;;;;;14.98;10.07;;;-2.40;99.90;;;;;;5095892;28;20231;-84
2021/01/11 09:54:32;;;;;;;17.70;8.70;;;-2.40;99.90;;;;;;5097024;28;20579;-84
2021/01/11 09:56:59;;;;;;;20.67;10.85;;;-2.30;99.90;;;;;;5096444;28;20204;-82
2021/01/11 09:59:26;;;;;;;18.90;10.98;;;-2.30;99.90;;;;;;5094616;28;20851;-83
2021/01/11 10:01:54;;;;;;;21.88;10.52;;;-2.20;99.90;;;;;;5096786;28;20209;-83
2021/01/11 10:04:22;;;;;;;20.05;10.07;;;-2.20;99.90;;;;;;5096563;28;20227;-82
2021/01/11 10:06:50;;;;;;;17.58;9.95;;;-2.20;99.90;;;;;;5097655;28;20201;-82
2021/01/11 10:09:18;;;;;;;19.13;10.48;;;-2.10;99.90;;;;;;5095020;28;20224;-83
2021/01/11 10:11:47;;;;;;;15.40;10.65;;;-2.10;99.90;;;;;;5097319;28;20657;-86
2021/01/11 10:14:14;;;;;;;19.77;11.20;;;-2.10;99.90;;;;;;5097209;28;20228;-85
2021/01/11 10:16:41;;;;;;;18.35;10.50;;;-2.00;99.90;;;;;;5098068;28;20624;-83
2021/01/11 10:19:08;;;;;;;18.02;10.63;;;-2.00;99.90;;;;;;5099398;28;20295;-84
2021/01/11 10:21:37;;;;;;;27.23;12.88;;;-1.90;99.90;;;;;;5097644;28;20242;-83
2021/01/11 10:24:05;;;;;;;23.33;13.60;;;-1.90;99.90;;;;;;5097099;28;20247;-89
2021/01/11 10:26:35;;;;;;;24.25;10.23;;;-1.90;99.90;;;;;;5084959;27;20247;-84
2021/01/11 10:29:02;;;;;;;16.08;8.07;;;-1.70;99.90;;;;;;5076704;28;20240;-86
2021/01/11 10:31:29;;;;;;;26.60;14.82;;;-1.90;99.90;;;;;;5075974;28;20840;-87
2021/01/11 10:33:56;;;;;;;25.05;12.75;;;-2.00;99.90;;;;;;5090489;28;20312;-87
2021/01/11 10:36:42;;;;;;;17.27;11.55;;;-1.80;99.90;;;;;;5098391;28;20228;-87
2021/01/11 10:39:10;;;;;;;20.05;12.05;;;-1.70;99.90;;;;;;5098965;28;20707;-88
2021/01/11 10:41:37;;;;;;;33.25;16.10;;;-1.50;99.90;;;;;;5099227;28;20239;-84
2021/01/11 10:44:04;;;;;;;57.63;24.70;;;-1.40;99.90;;;;;;5101659;28;20208;-89
2021/01/11 10:46:32;;;;;;;66.60;28.38;;;-1.50;99.90;;;;;;5099075;28;20243;-88
2021/01/11 10:48:59;;;;;;;18.40;11.57;;;-1.40;99.90;;;;;;5099714;28;20205;-89
2021/01/11 10:51:34;;;;;;;22.55;12.40;;;-1.30;99.90;;;;;;5103386;28;20247;-84
2021/01/11 10:54:03;;;;;;;16.30;11.57;;;-1.30;99.90;;;;;;5100529;28;20206;-89
2021/01/11 10:56:31;;;;;;;15.75;10.00;;;-1.20;99.90;;;;;;5100773;28;20215;-88
2021/01/11 10:58:57;;;;;;;17.58;10.32;;;-1.20;99.90;;;;;;5098873;28;20224;-86
2021/01/11 11:01:24;;;;;;;21.42;12.90;;;-1.20;99.90;;;;;;5096942;28;20196;-89
2021/01/11 11:03:53;;;;;;;124.70;63.70;;;-1.30;99.90;;;;;;5098792;28;20205;-92
2021/01/11 11:06:25;;;;;;;28.95;17.30;;;-1.20;99.90;;;;;;5098276;28;20231;-85
2021/01/11 11:08:52;;;;;;;18.80;10.80;;;-1.10;99.90;;;;;;5097764;28;20211;-87
2021/01/11 11:11:19;;;;;;;21.17;12.75;;;-1.10;99.90;;;;;;5097971;28;20208;-86
2021/01/11 11:13:47;;;;;;;25.38;14.20;;;-1.10;99.90;;;;;;5100012;28;20216;-86
2021/01/11 11:16:14;;;;;;;30.45;17.02;;;-1.30;99.90;;;;;;5102425;28;20224;-89
2021/01/11 11:18:41;;;;;;;21.83;11.90;;;-1.30;99.90;;;;;;5105245;28;20256;-89
2021/01/11 11:21:09;;;;;;;22.40;11.93;;;-1.30;99.90;;;;;;5108522;28;20204;-89
2021/01/11 11:23:42;;;;;;;18.90;10.55;;;-1.30;99.90;;;;;;5116721;28;20188;-89
2021/01/11 11:26:10;;;;;;;24.63;11.30;;;-1.20;99.90;;;;;;5115359;28;20192;-87
2021/01/11 11:28:38;;;;;;;16.50;10.07;;;-1.10;99.90;;;;;;5108024;28;20209;-86
2021/01/11 11:31:06;;;;;;;20.15;10.27;;;-1.10;99.90;;;;;;5102901;28;20242;-90
2021/01/11 11:33:32;;;;;;;18.30;10.98;;;-1.10;99.90;;;;;;5102345;28;20244;-89
2021/01/11 11:35:59;;;;;;;28.60;16.15;;;-1.10;99.90;;;;;;5102519;28;20236;-89
2021/01/11 11:38:26;;;;;;;28.65;16.88;;;-0.90;99.90;;;;;;5107545;28;20331;-86
2021/01/11 11:40:55;;;;;;;21.38;12.40;;;-0.80;99.90;;;;;;5107053;28;20248;-89
2021/01/11 11:43:21;;;;;;;14.70;8.77;;;-0.80;99.90;;;;;;5102839;28;20239;-92
2021/01/11 11:45:48;;;;;;;23.38;13.13;;;-0.80;99.90;;;;;;5098811;28;20251;-89
2021/01/11 11:48:16;;;;;;;21.35;12.07;;;-0.80;99.90;;;;;;5101982;28;20209;-87
2021/01/11 11:50:43;;;;;;;23.58;14.63;;;-0.70;99.90;;;;;;5102180;28;20224;-90
2021/01/11 11:53:09;;;;;;;15.70;8.63;;;-0.60;99.90;;;;;;5102832;28;20240;-88
2021/01/11 11:55:36;;;;;;;15.68;9.77;;;-0.50;99.90;;;;;;5100937;28;20201;-90
2021/01/11 11:58:09;;;;;;;22.90;13.45;;;-0.40;99.90;;;;;;5101091;28;20216;-89
2021/01/11 12:00:38;;;;;;;19.95;10.68;;;-0.30;99.90;;;;;;5100481;28;20201;-88
2021/01/11 12:03:04;;;;;;;16.42;10.25;;;-0.40;99.90;;;;;;5100870;28;20721;-91
2021/01/11 12:05:32;;;;;;;16.58;10.77;;;-0.60;99.90;;;;;;5102035;28;20207;-84
2021/01/11 12:07:59;;;;;;;17.45;9.98;;;-0.60;99.90;;;;;;5101274;28;20239;-88
2021/01/11 12:10:25;;;;;;;16.60;9.57;;;-0.70;99.90;;;;;;5102658;28;20286;-89
2021/01/11 12:12:51;;;;;;;20.47;10.20;;;-0.80;99.90;;;;;;5101093;28;20476;-85
2021/01/11 12:15:18;;;;;;;15.30;9.10;;;-0.80;99.90;;;;;;5100045;28;20451;-87
2021/01/11 12:17:45;;;;;;;16.83;11.90;;;-0.80;99.90;;;;;;5101067;28;20224;-85
2021/01/11 12:20:11;;;;;;;18.98;10.55;;;-0.70;99.90;;;;;;5100160;28;20215;-86
2021/01/11 12:22:39;;;;;;;22.08;12.02;;;-0.60;99.90;;;;;;5101146;28;20254;-85
2021/01/11 12:25:07;;;;;;;35.00;19.83;;;-0.50;99.90;;;;;;5101357;28;20208;-85
2021/01/11 12:27:34;;;;;;;61.05;32.60;;;-0.30;99.90;;;;;;5100007;28;20320;-86
2021/01/11 12:30:01;;;;;;;25.90;13.38;;;-0.30;99.90;;;;;;5099327;28;20254;-84
2021/01/11 12:32:28;;;;;;;18.65;8.73;;;-0.20;99.90;;;;;;5100340;28;20244;-87
2021/01/11 12:34:54;;;;;;;17.52;12.23;;;-0.30;99.90;;;;;;5100990;28;20680;-85
2021/01/11 12:37:21;;;;;;;21.10;12.88;;;-0.20;99.90;;;;;;5100826;28;20660;-84
2021/01/11 12:39:48;;;;;;;25.05;10.98;;;-0.20;99.90;;;;;;5101350;28;20228;-85